Time,TemperatureF,DewpointF,PressureIn,WindDirection,WindDirectionDegrees,WindSpeedMPH,WindSpeedGustMPH,Humidity,HourlyPrecipIn,Conditions,Clouds,dailyrainin,SoftwareType,DateUTC
2013-11-05 00:02:00,33.7,28.2,30.66,NNW,348,0.0,0.0,80,0.00,,,0.00,Wunderground v.1.15,2013-11-05 04:02:00,
2013-11-05 00:07:00,33.6,28.1,30.66,NNW,348,1.0,2.0,80,0.00,,,0.00,Wunderground v.1.15,2013-11-05 04:07:00,
2013-11-05 00:12:00,33.7,28.5,30.67,NNW,342,2.0,3.0,81,0.00,,,0.00,Wunderground v.1.15,2013-11-05 04:12:00,
2013-11-05 00:17:00,33.7,28.8,30.67,NNW,336,2.0,3.0,82,0.00,,,0.00,Wunderground v.1.15,2013-11-05 04:17:00,
2013-11-05 00:22:00,33.7,28.8,30.67,NNW,340,3.0,3.0,82,0.00,,,0.00,Wunderground v.1.15,2013-11-05 04:22:00,
2013-11-05 00:27:00,33.7,28.5,30.67,NNW,346,4.0,6.0,81,0.00,,,0.00,Wunderground v.1.15,2013-11-05 04:27:00,
2013-11-05 00:32:00,33.8,28.6,30.67,NNW,334,4.0,4.0,81,0.00,,,0.00,Wunderground v.1.15,2013-11-05 04:32:00,
2013-11-05 00:37:00,33.9,28.7,30.67,NNW,334,3.0,4.0,81,0.00,,,0.00,Wunderground v.1.15,2013-11-05 04:37:00,
2013-11-05 00:42:00,33.9,28.4,30.67,NNW,338,3.0,4.0,80,0.00,,,0.00,Wunderground v.1.15,2013-11-05 04:42:00,
2013-11-05 00:47:00,34.0,28.5,30.67,NNW,334,2.0,4.0,80,0.00,,,0.00,Wunderground v.1.15,2013-11-05 04:47:00,
2013-11-05 00:57:00,34.0,28.5,30.67,NNW,333,2.0,2.0,80,0.00,,,0.00,Wunderground v.1.15,2013-11-05 04:57:00,
2013-11-05 01:02:00,33.9,28.4,30.67,NNW,341,1.0,2.0,80,0.00,,,0.00,Wunderground v.1.15,2013-11-05 05:02:00,
2013-11-05 01:07:00,34.0,28.2,30.67,NNW,341,1.0,2.0,79,0.00,,,0.00,Wunderground v.1.15,2013-11-05 05:07:00,
2013-11-05 01:12:00,34.0,28.5,30.67,NNW,341,1.0,3.0,80,0.00,,,0.00,Wunderground v.1.15,2013-11-05 05:12:00,
2013-11-05 01:17:00,34.0,28.5,30.67,NNW,339,2.0,3.0,80,0.00,,,0.00,Wunderground v.1.15,2013-11-05 05:17:00,
2013-11-05 01:22:00,34.0,28.5,30.67,NNW,339,3.0,3.0,80,0.00,,,0.00,Wunderground v.1.15,2013-11-05 05:22:00,
2013-11-05 01:27:00,34.0,28.5,30.67,NNW,339,2.0,3.0,80,0.00,,,0.00,Wunderground v.1.15,2013-11-05 05:27:00,
2013-11-05 01:32:00,34.1,28.6,30.67,NNW,340,2.0,2.0,80,0.00,,,0.00,Wunderground v.1.15,2013-11-05 05:32:00,
2013-11-05 01:37:00,34.1,28.3,30.67,NNW,340,2.0,2.0,79,0.00,,,0.00,Wunderground v.1.15,2013-11-05 05:37:00,
2013-11-05 01:42:00,34.1,28.6,30.67,NNW,340,1.0,1.0,80,0.00,,,0.00,Wunderground v.1.15,2013-11-05 05:42:00,
2013-11-05 01:47:00,34.1,28.0,30.67,NNW,327,1.0,2.0,78,0.00,,,0.00,Wunderground v.1.15,2013-11-05 05:47:00,
2013-11-05 01:52:00,34.2,28.1,30.67,NNW,330,1.0,2.0,78,0.00,,,0.00,Wunderground v.1.15,2013-11-05 05:52:00,
2013-11-05 01:57:00,34.2,27.7,30.67,NNW,335,1.0,3.0,77,0.00,,,0.00,Wunderground v.1.15,2013-11-05 05:57:00,
2013-11-05 02:02:00,34.1,27.3,30.67,NNW,345,2.0,2.0,76,0.00,,,0.00,Wunderground v.1.15,2013-11-05 06:02:00,
2013-11-05 02:07:00,34.0,27.2,30.67,NNW,340,2.0,2.0,76,0.00,,,0.00,Wunderground v.1.15,2013-11-05 06:07:00,
2013-11-05 02:12:00,33.8,27.4,30.67,NNW,338,2.0,3.0,77,0.00,,,0.00,Wunderground v.1.15,2013-11-05 06:12:00,
2013-11-05 02:17:00,33.6,27.2,30.68,NNW,338,2.0,3.0,77,0.00,,,0.00,Wunderground v.1.15,2013-11-05 06:17:00,
2013-11-05 02:22:00,33.4,27.3,30.68,NNW,338,2.0,2.0,78,0.00,,,0.00,Wunderground v.1.15,2013-11-05 06:22:00,
2013-11-05 02:27:00,33.1,27.0,30.68,NNW,343,1.0,2.0,78,0.00,,,0.00,Wunderground v.1.15,2013-11-05 06:27:00,
2013-11-05 02:32:00,32.8,26.7,30.67,North,349,1.0,1.0,78,0.00,,,0.00,Wunderground v.1.15,2013-11-05 06:32:00,
2013-11-05 02:37:00,32.6,26.5,30.67,North,349,1.0,1.0,78,0.00,,,0.00,Wunderground v.1.15,2013-11-05 06:37:00,
2013-11-05 02:42:00,32.4,26.3,30.67,North,349,1.0,1.0,78,0.00,,,0.00,Wunderground v.1.15,2013-11-05 06:42:00,
2013-11-05 02:47:00,32.3,26.5,30.67,North,349,0.0,1.0,79,0.00,,,0.00,Wunderground v.1.15,2013-11-05 06:47:00,
2013-11-05 02:52:00,32.1,26.3,30.67,NNW,348,0.0,0.0,79,0.00,,,0.00,Wunderground v.1.15,2013-11-05 06:52:00,
2013-11-05 02:57:00,32.0,26.2,30.67,NNW,348,1.0,1.0,79,0.00,,,0.00,Wunderground v.1.15,2013-11-05 06:57:00,
2013-11-05 03:02:00,31.9,26.1,30.67,NNW,348,1.0,1.0,79,0.00,,,0.00,Wunderground v.1.15,2013-11-05 07:02:00,
2013-11-05 03:07:00,31.8,26.0,30.67,NNW,348,0.0,1.0,79,0.00,,,0.00,Wunderground v.1.15,2013-11-05 07:07:00,
2013-11-05 03:12:00,31.7,25.9,30.67,NNW,348,0.0,1.0,79,0.00,,,0.00,Wunderground v.1.15,2013-11-05 07:12:00,
2013-11-05 03:17:00,31.6,25.8,30.67,NNW,348,0.0,1.0,79,0.00,,,0.00,Wunderground v.1.15,2013-11-05 07:17:00,
2013-11-05 03:22:00,31.4,25.6,30.67,NNW,348,0.0,0.0,79,0.00,,,0.00,Wunderground v.1.15,2013-11-05 07:22:00,
2013-11-05 03:27:00,31.3,25.5,30.67,NNW,348,0.0,0.0,79,0.00,,,0.00,Wunderground v.1.15,2013-11-05 07:27:00,
2013-11-05 03:32:00,31.2,26.0,30.67,NNW,348,0.0,0.0,81,0.00,,,0.00,Wunderground v.1.15,2013-11-05 07:32:00,
2013-11-05 03:37:00,31.0,25.9,30.67,NNW,348,0.0,0.0,81,0.00,,,0.00,Wunderground v.1.15,2013-11-05 07:37:00,
2013-11-05 03:42:00,30.9,25.8,30.67,NNW,348,0.0,0.0,81,0.00,,,0.00,Wunderground v.1.15,2013-11-05 07:42:00,
2013-11-05 03:47:00,30.7,25.6,30.67,NNW,348,0.0,0.0,81,0.00,,,0.00,Wunderground v.1.15,2013-11-05 07:47:00,
2013-11-05 03:52:00,30.4,25.3,30.67,NW,321,0.0,0.0,81,0.00,,,0.00,Wunderground v.1.15,2013-11-05 07:52:00,
2013-11-05 03:57:00,30.3,25.2,30.67,NNW,331,1.0,3.0,81,0.00,,,0.00,Wunderground v.1.15,2013-11-05 07:57:00,
2013-11-05 04:02:00,30.3,25.5,30.67,NNW,333,2.0,3.0,82,0.00,,,0.00,Wunderground v.1.15,2013-11-05 08:02:00,
2013-11-05 04:07:00,30.5,25.7,30.67,NNW,334,3.0,4.0,82,0.00,,,0.00,Wunderground v.1.15,2013-11-05 08:07:00,
2013-11-05 04:12:00,30.7,25.6,30.67,NNW,334,3.0,3.0,81,0.00,,,0.00,Wunderground v.1.15,2013-11-05 08:12:00,
2013-11-05 04:17:00,30.8,26.0,30.67,NNW,331,3.0,3.0,82,0.00,,,0.00,Wunderground v.1.15,2013-11-05 08:17:00,
2013-11-05 04:22:00,30.8,26.0,30.67,NNW,329,2.0,2.0,82,0.00,,,0.00,Wunderground v.1.15,2013-11-05 08:22:00,
2013-11-05 04:27:00,30.7,25.6,30.67,NNW,329,1.0,2.0,81,0.00,,,0.00,Wunderground v.1.15,2013-11-05 08:27:00,
2013-11-05 04:32:00,30.6,25.8,30.68,NNW,336,2.0,3.0,82,0.00,,,0.00,Wunderground v.1.15,2013-11-05 08:32:00,
2013-11-05 04:42:00,31.0,26.4,30.68,NNW,341,2.0,4.0,83,0.00,,,0.00,Wunderground v.1.15,2013-11-05 08:42:00,
2013-11-05 04:47:00,31.3,26.7,30.68,NNW,333,3.0,4.0,83,0.00,,,0.00,Wunderground v.1.15,2013-11-05 08:47:00,
2013-11-05 04:52:00,31.5,26.6,30.68,NW,325,3.0,3.0,82,0.00,,,0.00,Wunderground v.1.15,2013-11-05 08:52:00,
2013-11-05 04:57:00,31.6,26.7,30.69,NNW,336,2.0,3.0,82,0.00,,,0.00,Wunderground v.1.15,2013-11-05 08:57:00,
2013-11-05 05:02:00,31.8,27.2,30.69,NNW,341,3.0,4.0,83,0.00,,,0.00,Wunderground v.1.15,2013-11-05 09:02:00,
2013-11-05 05:07:00,32.2,27.6,30.69,NW,326,4.0,4.0,83,0.00,,,0.00,Wunderground v.1.15,2013-11-05 09:07:00,
2013-11-05 05:12:00,32.5,27.9,30.69,NW,325,3.0,3.0,83,0.00,,,0.00,Wunderground v.1.15,2013-11-05 09:12:00,
2013-11-05 05:17:00,32.6,28.0,30.69,NNW,337,2.0,3.0,83,0.00,,,0.00,Wunderground v.1.15,2013-11-05 09:17:00,
2013-11-05 05:22:00,32.5,27.9,30.69,NNW,328,2.0,5.0,83,0.00,,,0.00,Wunderground v.1.15,2013-11-05 09:22:00,
2013-11-05 05:27:00,32.6,28.3,30.69,NNW,346,4.0,5.0,84,0.00,,,0.00,Wunderground v.1.15,2013-11-05 09:27:00,
2013-11-05 05:32:00,32.8,28.8,30.70,NNW,327,5.0,5.0,85,0.00,,,0.00,Wunderground v.1.15,2013-11-05 09:32:00,
2013-11-05 05:37:00,32.9,28.9,30.70,NNW,337,4.0,5.0,85,0.00,,,0.00,Wunderground v.1.15,2013-11-05 09:37:00,
2013-11-05 05:42:00,33.1,29.1,30.70,NNW,333,4.0,4.0,85,0.00,,,0.00,Wunderground v.1.15,2013-11-05 09:42:00,
2013-11-05 05:47:00,33.3,29.8,30.70,North,360,4.0,4.0,87,0.00,,,0.00,Wunderground v.1.15,2013-11-05 09:47:00,
2013-11-05 05:52:00,33.6,30.4,30.70,NNW,348,4.0,4.0,88,0.00,,,0.00,Wunderground v.1.15,2013-11-05 09:52:00,
2013-11-05 05:57:00,33.8,30.6,30.70,North,351,4.0,4.0,88,0.00,,,0.00,Wunderground v.1.15,2013-11-05 09:57:00,
2013-11-05 06:02:00,33.9,30.7,30.70,North,11,3.0,3.0,88,0.00,,,0.00,Wunderground v.1.15,2013-11-05 10:02:00,
2013-11-05 06:07:00,33.9,30.7,30.70,NNW,348,3.0,3.0,88,0.00,,,0.00,Wunderground v.1.15,2013-11-05 10:07:00,
2013-11-05 06:12:00,33.8,30.6,30.70,North,349,3.0,3.0,88,0.00,,,0.00,Wunderground v.1.15,2013-11-05 10:12:00,
2013-11-05 06:17:00,33.7,30.5,30.70,NNW,337,3.0,3.0,88,0.00,,,0.00,Wunderground v.1.15,2013-11-05 10:17:00,
2013-11-05 06:27:00,33.6,30.4,30.70,NNW,343,3.0,3.0,88,0.00,,,0.00,Wunderground v.1.15,2013-11-05 10:27:00,
2013-11-05 06:32:00,33.5,30.3,30.70,North,350,3.0,3.0,88,0.00,,,0.00,Wunderground v.1.15,2013-11-05 10:32:00,
2013-11-05 06:42:00,33.2,30.0,30.70,NNW,336,2.0,4.0,88,0.00,,,0.00,Wunderground v.1.15,2013-11-05 10:42:00,
2013-11-05 06:47:00,33.1,29.9,30.70,NNW,344,3.0,4.0,88,0.00,,,0.00,Wunderground v.1.15,2013-11-05 10:47:00,
2013-11-05 06:52:00,32.9,29.7,30.70,NNW,340,3.0,3.0,88,0.00,,,0.00,Wunderground v.1.15,2013-11-05 10:52:00,
2013-11-05 06:57:00,32.8,29.6,30.70,NNW,340,2.0,3.0,88,0.00,,,0.00,Wunderground v.1.15,2013-11-05 10:57:00,
2013-11-05 07:02:00,32.6,29.4,30.70,NNW,340,1.0,1.0,88,0.00,,,0.00,Wunderground v.1.15,2013-11-05 11:02:00,
2013-11-05 07:07:00,32.5,29.3,30.70,NNW,340,0.0,1.0,88,0.00,,,0.00,Wunderground v.1.15,2013-11-05 11:07:00,
2013-11-05 07:12:00,32.3,29.1,30.70,NNW,340,1.0,2.0,88,0.00,,,0.00,Wunderground v.1.15,2013-11-05 11:12:00,
2013-11-05 07:17:00,32.2,29.0,30.70,NNW,348,1.0,2.0,88,0.00,,,0.00,Wunderground v.1.15,2013-11-05 11:17:00,
2013-11-05 07:22:00,32.0,28.8,30.70,NNW,348,1.0,1.0,88,0.00,,,0.00,Wunderground v.1.15,2013-11-05 11:22:00,
2013-11-05 07:27:00,31.9,28.8,30.70,NNW,346,1.0,2.0,88,0.00,,,0.00,Wunderground v.1.15,2013-11-05 11:27:00,
2013-11-05 07:32:00,31.8,28.7,30.70,NNW,348,1.0,2.0,88,0.00,,,0.00,Wunderground v.1.15,2013-11-05 11:32:00,
2013-11-05 07:37:00,31.8,28.7,30.70,North,349,1.0,2.0,88,0.00,,,0.00,Wunderground v.1.15,2013-11-05 11:37:00,
2013-11-05 07:42:00,31.7,28.6,30.70,North,349,1.0,1.0,88,0.00,,,0.00,Wunderground v.1.15,2013-11-05 11:42:00,
2013-11-05 07:47:00,31.8,28.7,30.71,NNW,341,2.0,3.0,88,0.00,,,0.00,Wunderground v.1.15,2013-11-05 11:47:00,
2013-11-05 07:52:00,31.9,29.0,30.71,NNW,343,2.0,2.0,89,0.00,,,0.00,Wunderground v.1.15,2013-11-05 11:52:00,
2013-11-05 08:02:00,32.3,29.1,30.71,North,350,2.0,2.0,88,0.00,,,0.00,Wunderground v.1.15,2013-11-05 12:02:00,
2013-11-05 08:07:00,32.6,29.4,30.71,North,360,2.0,2.0,88,0.00,,,0.00,Wunderground v.1.15,2013-11-05 12:07:00,
2013-11-05 08:12:00,33.2,29.8,30.71,North,355,2.0,3.0,87,0.00,,,0.00,Wunderground v.1.15,2013-11-05 12:12:00,
2013-11-05 08:17:00,33.7,30.0,30.71,NNW,344,3.0,3.0,86,0.00,,,0.00,Wunderground v.1.15,2013-11-05 12:17:00,
2013-11-05 08:22:00,34.1,30.1,30.71,North,5,3.0,4.0,85,0.00,,,0.00,Wunderground v.1.15,2013-11-05 12:22:00,
2013-11-05 08:27:00,34.4,30.1,30.71,North,351,3.0,4.0,84,0.00,,,0.00,Wunderground v.1.15,2013-11-05 12:27:00,
2013-11-05 08:37:00,35.4,30.5,30.71,NNW,335,4.0,4.0,82,0.00,,,0.00,Wunderground v.1.15,2013-11-05 12:37:00,
2013-11-05 08:42:00,35.7,30.4,30.71,NNW,339,3.0,3.0,81,0.00,,,0.00,Wunderground v.1.15,2013-11-05 12:42:00,
2013-11-05 08:52:00,36.5,30.9,30.72,NNW,338,3.0,5.0,80,0.00,,,0.00,Wunderground v.1.15,2013-11-05 12:52:00,
2013-11-05 08:57:00,37.2,31.0,30.71,NNW,348,2.0,5.0,78,0.00,,,0.00,Wunderground v.1.15,2013-11-05 12:57:00,
2013-11-05 09:07:00,38.4,31.5,30.71,NNW,339,3.0,4.0,76,0.00,,,0.00,Wunderground v.1.15,2013-11-05 13:07:00,
2013-11-05 09:12:00,38.8,31.2,30.71,North,350,3.0,3.0,74,0.00,,,0.00,Wunderground v.1.15,2013-11-05 13:12:00,
2013-11-05 09:17:00,39.4,31.8,30.71,NNW,331,3.0,3.0,74,0.00,,,0.00,Wunderground v.1.15,2013-11-05 13:17:00,
2013-11-05 09:22:00,39.8,31.5,30.71,North,360,3.0,3.0,72,0.00,,,0.00,Wunderground v.1.15,2013-11-05 13:22:00,
2013-11-05 09:27:00,40.2,32.2,30.71,North,360,4.0,4.0,73,0.00,,,0.00,Wunderground v.1.15,2013-11-05 13:27:00,
2013-11-05 09:32:00,40.6,32.3,30.71,North,360,4.0,4.0,72,0.00,,,0.00,Wunderground v.1.15,2013-11-05 13:32:00,
2013-11-05 09:37:00,41.0,32.3,30.71,NNW,344,5.0,5.0,71,0.00,,,0.00,Wunderground v.1.15,2013-11-05 13:37:00,
2013-11-05 09:42:00,41.2,31.8,30.71,NNW,348,5.0,7.0,69,0.00,,,0.00,Wunderground v.1.15,2013-11-05 13:42:00,
2013-11-05 09:47:00,40.6,30.9,30.71,North,5,6.0,7.0,68,0.00,,,0.00,Wunderground v.1.15,2013-11-05 13:47:00,
2013-11-05 09:52:00,40.1,30.7,30.71,NNW,337,6.0,6.0,69,0.00,,,0.00,Wunderground v.1.15,2013-11-05 13:52:00,
2013-11-05 09:57:00,39.7,30.7,30.71,North,360,5.0,6.0,70,0.00,,,0.00,Wunderground v.1.15,2013-11-05 13:57:00,
2013-11-05 10:07:00,39.3,30.7,30.71,North,355,4.0,4.0,71,0.00,,,0.00,Wunderground v.1.15,2013-11-05 14:07:00,
2013-11-05 10:12:00,39.4,30.8,30.71,North,355,4.0,4.0,71,0.00,,,0.00,Wunderground v.1.15,2013-11-05 14:12:00,
2013-11-05 10:17:00,39.5,30.5,30.71,North,360,4.0,6.0,70,0.00,,,0.00,Wunderground v.1.15,2013-11-05 14:17:00,
2013-11-05 10:22:00,39.6,31.0,30.71,NNW,336,4.0,4.0,71,0.00,,,0.00,Wunderground v.1.15,2013-11-05 14:22:00,
2013-11-05 10:27:00,39.7,31.1,30.71,NW,309,4.0,4.0,71,0.00,,,0.00,Wunderground v.1.15,2013-11-05 14:27:00,
2013-11-05 10:37:00,40.4,31.4,30.71,NNW,346,5.0,9.0,70,0.00,,,0.00,Wunderground v.1.15,2013-11-05 14:37:00,
2013-11-05 10:47:00,40.1,31.4,30.71,North,350,7.0,7.0,71,0.00,,,0.00,Wunderground v.1.15,2013-11-05 14:47:00,
2013-11-05 10:57:00,39.8,30.5,30.72,NNW,346,5.0,6.0,69,0.00,,,0.00,Wunderground v.1.15,2013-11-05 14:57:00,
2013-11-05 11:02:00,39.7,31.4,30.71,NNW,333,5.0,6.0,72,0.00,,,0.00,Wunderground v.1.15,2013-11-05 15:02:00,
2013-11-05 11:07:00,39.7,30.4,30.71,NNW,346,5.0,6.0,69,0.00,,,0.00,Wunderground v.1.15,2013-11-05 15:07:00,
2013-11-05 11:12:00,39.8,30.8,30.71,NW,315,6.0,6.0,70,0.00,,,0.00,Wunderground v.1.15,2013-11-05 15:12:00,
2013-11-05 11:22:00,39.5,30.5,30.71,NW,320,5.0,6.0,70,0.00,,,0.00,Wunderground v.1.15,2013-11-05 15:22:00,
2013-11-05 11:27:00,39.5,30.2,30.71,NNW,347,6.0,6.0,69,0.00,,,0.00,Wunderground v.1.15,2013-11-05 15:27:00,
2013-11-05 11:32:00,40.4,29.9,30.70,NNW,340,5.0,5.0,66,0.00,,,0.00,Wunderground v.1.15,2013-11-05 15:32:00,
2013-11-05 11:37:00,40.4,29.6,30.70,NW,321,5.0,5.0,65,0.00,,,0.00,Wunderground v.1.15,2013-11-05 15:37:00,
2013-11-05 11:42:00,40.4,29.9,30.70,NNW,339,5.0,6.0,66,0.00,,,0.00,Wunderground v.1.15,2013-11-05 15:42:00,
2013-11-05 11:47:00,40.4,29.9,30.69,NW,306,4.0,6.0,66,0.00,,,0.00,Wunderground v.1.15,2013-11-05 15:47:00,
2013-11-05 11:57:00,40.6,30.1,30.69,NW,304,5.0,5.0,66,0.00,,,0.00,Wunderground v.1.15,2013-11-05 15:57:00,
2013-11-05 12:02:00,40.6,30.1,30.69,NW,324,5.0,5.0,66,0.00,,,0.00,Wunderground v.1.15,2013-11-05 16:02:00,
2013-11-05 12:07:00,41.5,31.0,30.69,NNW,333,4.0,5.0,66,0.00,,,0.00,Wunderground v.1.15,2013-11-05 16:07:00,
2013-11-05 12:12:00,42.3,30.6,30.68,NNW,328,3.0,3.0,63,0.00,,,0.00,Wunderground v.1.15,2013-11-05 16:12:00,
2013-11-05 12:17:00,41.8,29.7,30.68,NW,316,4.0,5.0,62,0.00,,,0.00,Wunderground v.1.15,2013-11-05 16:17:00,
2013-11-05 12:22:00,41.1,30.2,30.68,NNW,342,5.0,6.0,65,0.00,,,0.00,Wunderground v.1.15,2013-11-05 16:22:00,
2013-11-05 12:27:00,41.6,30.7,30.68,West,279,4.0,6.0,65,0.00,,,0.00,Wunderground v.1.15,2013-11-05 16:27:00,
2013-11-05 12:32:00,41.3,30.8,30.67,WNW,298,5.0,9.0,66,0.00,,,0.00,Wunderground v.1.15,2013-11-05 16:32:00,
2013-11-05 12:37:00,41.2,30.7,30.67,NNW,337,6.0,9.0,66,0.00,,,0.00,Wunderground v.1.15,2013-11-05 16:37:00,
2013-11-05 12:42:00,40.9,29.3,30.67,North,355,7.0,8.0,63,0.00,,,0.00,Wunderground v.1.15,2013-11-05 16:42:00,
2013-11-05 12:47:00,40.6,30.1,30.67,NNW,332,6.0,8.0,66,0.00,,,0.00,Wunderground v.1.15,2013-11-05 16:47:00,
2013-11-05 12:52:00,41.1,30.2,30.67,NNW,331,5.0,5.0,65,0.00,,,0.00,Wunderground v.1.15,2013-11-05 16:52:00,
2013-11-05 12:57:00,41.8,30.9,30.67,WNW,292,5.0,5.0,65,0.00,,,0.00,Wunderground v.1.15,2013-11-05 16:57:00,
2013-11-05 13:02:00,42.1,30.8,30.67,NW,322,4.0,4.0,64,0.00,,,0.00,Wunderground v.1.15,2013-11-05 17:02:00,
2013-11-05 13:07:00,42.2,30.5,30.67,WNW,295,5.0,6.0,63,0.00,,,0.00,Wunderground v.1.15,2013-11-05 17:07:00,
2013-11-05 13:12:00,41.3,29.6,30.67,WNW,299,6.0,6.0,63,0.00,,,0.00,Wunderground v.1.15,2013-11-05 17:12:00,
2013-11-05 13:17:00,41.1,28.3,30.67,WNW,298,6.0,6.0,60,0.00,,,0.00,Wunderground v.1.15,2013-11-05 17:17:00,
2013-11-05 13:27:00,40.7,27.9,30.66,WNW,295,6.0,8.0,60,0.00,,,0.00,Wunderground v.1.15,2013-11-05 17:27:00,
2013-11-05 13:32:00,40.4,28.0,30.66,WNW,302,6.0,11.0,61,0.00,,,0.00,Wunderground v.1.15,2013-11-05 17:32:00,
2013-11-05 13:37:00,40.1,26.9,30.66,West,277,8.0,11.0,59,0.00,,,0.00,Wunderground v.1.15,2013-11-05 17:37:00,
2013-11-05 13:42:00,40.0,26.8,30.66,NNW,338,6.0,6.0,59,0.00,,,0.00,Wunderground v.1.15,2013-11-05 17:42:00,
2013-11-05 13:52:00,41.3,26.3,30.66,WNW,293,5.0,8.0,55,0.00,,,0.00,Wunderground v.1.15,2013-11-05 17:52:00,
2013-11-05 14:02:00,41.4,25.5,30.65,NNW,334,5.0,5.0,53,0.00,,,0.00,Wunderground v.1.15,2013-11-05 18:02:00,
2013-11-05 14:12:00,40.4,24.1,30.65,WNW,300,5.0,5.0,52,0.00,,,0.00,Wunderground v.1.15,2013-11-05 18:12:00,
2013-11-05 14:17:00,40.5,25.1,30.65,NNW,336,4.0,5.0,54,0.00,,,0.00,Wunderground v.1.15,2013-11-05 18:17:00,
2013-11-05 14:22:00,40.9,24.6,30.65,NNW,337,4.0,4.0,52,0.00,,,0.00,Wunderground v.1.15,2013-11-05 18:22:00,
2013-11-05 14:27:00,40.9,25.1,30.65,West,279,5.0,5.0,53,0.00,,,0.01,Wunderground v.1.15,2013-11-05 18:27:00,
2013-11-05 14:32:00,40.4,24.6,30.65,WSW,257,5.0,6.0,53,0.00,,,0.01,Wunderground v.1.15,2013-11-05 18:32:00,
2013-11-05 14:37:00,40.7,26.2,30.65,WNW,297,5.0,6.0,56,0.00,,,0.01,Wunderground v.1.15,2013-11-05 18:37:00,
2013-11-05 14:42:00,40.8,26.3,30.65,West,277,5.0,5.0,56,0.00,,,0.01,Wunderground v.1.15,2013-11-05 18:42:00,
2013-11-05 14:47:00,40.8,25.0,30.65,West,271,5.0,5.0,53,0.00,,,0.01,Wunderground v.1.15,2013-11-05 18:47:00,
2013-11-05 14:52:00,40.7,26.6,30.65,West,261,5.0,5.0,57,0.00,,,0.01,Wunderground v.1.15,2013-11-05 18:52:00,
2013-11-05 14:57:00,40.7,25.8,30.65,WNW,289,4.0,5.0,55,0.00,,,0.01,Wunderground v.1.15,2013-11-05 18:57:00,
2013-11-05 15:02:00,40.8,26.3,30.65,WSW,239,4.0,4.0,56,0.00,,,0.01,Wunderground v.1.15,2013-11-05 19:02:00,
2013-11-05 15:07:00,40.7,25.8,30.65,WSW,239,4.0,5.0,55,0.00,,,0.01,Wunderground v.1.15,2013-11-05 19:07:00,
2013-11-05 15:12:00,41.0,26.9,30.65,WNW,302,4.0,4.0,57,0.00,,,0.01,Wunderground v.1.15,2013-11-05 19:12:00,
2013-11-05 15:22:00,40.8,25.9,30.64,WSW,253,4.0,4.0,55,0.00,,,0.01,Wunderground v.1.15,2013-11-05 19:22:00,
2013-11-05 15:27:00,40.9,26.4,30.64,West,265,3.0,4.0,56,0.00,,,0.01,Wunderground v.1.15,2013-11-05 19:27:00,
2013-11-05 15:32:00,40.6,25.7,30.64,West,267,3.0,5.0,55,0.00,,,0.01,Wunderground v.1.15,2013-11-05 19:32:00,
2013-11-05 15:37:00,40.8,27.2,30.64,West,260,4.0,5.0,58,0.00,,,0.01,Wunderground v.1.15,2013-11-05 19:37:00,
2013-11-05 15:42:00,40.3,26.3,30.64,West,261,3.0,3.0,57,0.00,,,0.01,Wunderground v.1.15,2013-11-05 19:42:00,
2013-11-05 15:47:00,39.3,25.7,30.64,WSW,242,3.0,3.0,58,0.00,,,0.01,Wunderground v.1.15,2013-11-05 19:47:00,
2013-11-05 15:52:00,38.8,25.7,30.64,WSW,244,2.0,2.0,59,0.00,,,0.01,Wunderground v.1.15,2013-11-05 19:52:00,
2013-11-05 15:57:00,38.4,26.1,30.63,WSW,252,1.0,2.0,61,0.00,,,0.01,Wunderground v.1.15,2013-11-05 19:57:00,
2013-11-05 16:02:00,38.3,26.0,30.64,WSW,250,1.0,1.0,61,0.00,,,0.01,Wunderground v.1.15,2013-11-05 20:02:00,
2013-11-05 16:07:00,38.2,26.3,30.63,WSW,250,0.0,1.0,62,0.00,,,0.01,Wunderground v.1.15,2013-11-05 20:07:00,
2013-11-05 16:12:00,38.1,26.6,30.63,WSW,246,0.0,0.0,63,0.00,,,0.01,Wunderground v.1.15,2013-11-05 20:12:00,
2013-11-05 16:17:00,38.0,26.1,30.63,WSW,246,0.0,0.0,62,0.00,,,0.01,Wunderground v.1.15,2013-11-05 20:17:00,
2013-11-05 16:22:00,37.9,26.8,30.63,WSW,246,0.0,0.0,64,0.00,,,0.01,Wunderground v.1.15,2013-11-05 20:22:00,
2013-11-05 16:27:00,37.7,27.0,30.63,WSW,246,0.0,0.0,65,0.00,,,0.01,Wunderground v.1.15,2013-11-05 20:27:00,
2013-11-05 16:32:00,37.6,26.5,30.63,WSW,246,0.0,0.0,64,0.00,,,0.01,Wunderground v.1.15,2013-11-05 20:32:00,
2013-11-05 16:37:00,37.5,26.0,30.63,WSW,246,0.0,0.0,63,0.00,,,0.01,Wunderground v.1.15,2013-11-05 20:37:00,
2013-11-05 16:42:00,37.4,26.7,30.63,WSW,246,0.0,0.0,65,0.00,,,0.01,Wunderground v.1.15,2013-11-05 20:42:00,
2013-11-05 16:47:00,37.2,26.5,30.63,WSW,246,0.0,0.0,65,0.00,,,0.01,Wunderground v.1.15,2013-11-05 20:47:00,
2013-11-05 16:52:00,37.1,26.8,30.63,WSW,246,0.0,0.0,66,0.00,,,0.01,Wunderground v.1.15,2013-11-05 20:52:00,
2013-11-05 16:57:00,36.9,27.3,30.63,WSW,246,0.0,0.0,68,0.00,,,0.01,Wunderground v.1.15,2013-11-05 20:57:00,
2013-11-05 17:02:00,36.6,27.0,30.63,WSW,246,0.0,0.0,68,0.00,,,0.01,Wunderground v.1.15,2013-11-05 21:02:00,
2013-11-05 17:12:00,36.3,26.7,30.62,WSW,246,0.0,0.0,68,0.00,,,0.01,Wunderground v.1.15,2013-11-05 21:12:00,
2013-11-05 17:17:00,36.1,26.2,30.62,WSW,246,0.0,0.0,67,0.00,,,0.01,Wunderground v.1.15,2013-11-05 21:17:00,
2013-11-05 17:22:00,35.9,26.4,30.61,WSW,246,0.0,0.0,68,0.00,,,0.01,Wunderground v.1.15,2013-11-05 21:22:00,
2013-11-05 17:27:00,35.6,26.1,30.61,WSW,246,0.0,0.0,68,0.00,,,0.01,Wunderground v.1.15,2013-11-05 21:27:00,
2013-11-05 17:32:00,35.4,25.5,30.61,WSW,246,0.0,0.0,67,0.00,,,0.01,Wunderground v.1.15,2013-11-05 21:32:00,
2013-11-05 17:37:00,35.3,25.4,30.61,WSW,246,0.0,0.0,67,0.00,,,0.01,Wunderground v.1.15,2013-11-05 21:37:00,
2013-11-05 17:42:00,35.2,25.7,30.61,WSW,246,0.0,0.0,68,0.00,,,0.01,Wunderground v.1.15,2013-11-05 21:42:00,
2013-11-05 17:47:00,35.1,25.9,30.60,WSW,246,0.0,0.0,69,0.00,,,0.01,Wunderground v.1.15,2013-11-05 21:47:00,
2013-11-05 17:52:00,35.0,25.5,30.60,WSW,246,0.0,0.0,68,0.00,,,0.01,Wunderground v.1.15,2013-11-05 21:52:00,
2013-11-05 17:57:00,35.0,25.5,30.60,WSW,246,0.0,0.0,68,0.00,,,0.01,Wunderground v.1.15,2013-11-05 21:57:00,
2013-11-05 18:02:00,34.9,25.8,30.61,WSW,246,0.0,0.0,69,0.00,,,0.01,Wunderground v.1.15,2013-11-05 22:02:00,
2013-11-05 18:07:00,34.6,25.8,30.61,WSW,246,0.0,0.0,70,0.00,,,0.01,Wunderground v.1.15,2013-11-05 22:07:00,
2013-11-05 18:17:00,33.8,25.0,30.60,WSW,246,0.0,0.0,70,0.00,,,0.01,Wunderground v.1.15,2013-11-05 22:17:00,
2013-11-05 18:22:00,33.7,25.0,30.60,WSW,246,0.0,0.0,70,0.00,,,0.01,Wunderground v.1.15,2013-11-05 22:22:00,
2013-11-05 18:27:00,33.5,25.1,30.60,WSW,246,0.0,0.0,71,0.00,,,0.01,Wunderground v.1.15,2013-11-05 22:27:00,
2013-11-05 18:32:00,33.3,24.9,30.60,WSW,246,0.0,0.0,71,0.00,,,0.01,Wunderground v.1.15,2013-11-05 22:32:00,
2013-11-05 18:37:00,33.1,25.1,30.59,WSW,246,0.0,0.0,72,0.00,,,0.01,Wunderground v.1.15,2013-11-05 22:37:00,
2013-11-05 18:42:00,32.9,24.9,30.59,WSW,246,0.0,0.0,72,0.00,,,0.01,Wunderground v.1.15,2013-11-05 22:42:00,
2013-11-05 18:47:00,32.7,24.7,30.59,WSW,246,0.0,0.0,72,0.00,,,0.01,Wunderground v.1.15,2013-11-05 22:47:00,
2013-11-05 18:52:00,32.6,24.9,30.59,WSW,246,0.0,0.0,73,0.00,,,0.01,Wunderground v.1.15,2013-11-05 22:52:00,
2013-11-05 18:57:00,32.5,24.8,30.59,WSW,246,0.0,0.0,73,0.00,,,0.01,Wunderground v.1.15,2013-11-05 22:57:00,
2013-11-05 19:02:00,32.4,25.0,30.59,WSW,246,0.0,0.0,74,0.00,,,0.01,Wunderground v.1.15,2013-11-05 23:02:00,
2013-11-05 19:07:00,32.3,24.9,30.59,WSW,246,0.0,0.0,74,0.00,,,0.01,Wunderground v.1.15,2013-11-05 23:07:00,
2013-11-05 19:12:00,32.3,24.9,30.59,WSW,246,0.0,0.0,74,0.00,,,0.01,Wunderground v.1.15,2013-11-05 23:12:00,
2013-11-05 19:17:00,32.4,24.7,30.59,WSW,246,0.0,0.0,73,0.00,,,0.01,Wunderground v.1.15,2013-11-05 23:17:00,
2013-11-05 19:22:00,32.4,24.7,30.59,WSW,246,0.0,0.0,73,0.00,,,0.01,Wunderground v.1.15,2013-11-05 23:22:00,
2013-11-05 19:27:00,32.2,24.8,30.60,WSW,246,0.0,0.0,74,0.00,,,0.01,Wunderground v.1.15,2013-11-05 23:27:00,
2013-11-05 19:32:00,32.1,24.7,30.60,WSW,246,0.0,0.0,74,0.00,,,0.01,Wunderground v.1.15,2013-11-05 23:32:00,
2013-11-05 19:42:00,31.8,24.8,30.60,WSW,246,0.0,0.0,75,0.00,,,0.01,Wunderground v.1.15,2013-11-05 23:42:00,
2013-11-05 19:47:00,31.6,24.9,30.60,WSW,246,0.0,0.0,76,0.00,,,0.01,Wunderground v.1.15,2013-11-05 23:47:00,
2013-11-05 19:52:00,31.3,25.2,30.60,WSW,246,0.0,0.0,78,0.00,,,0.01,Wunderground v.1.15,2013-11-05 23:52:00,
2013-11-05 19:57:00,31.0,24.9,30.60,WSW,246,0.0,0.0,78,0.00,,,0.01,Wunderground v.1.15,2013-11-05 23:57:00,
2013-11-05 20:02:00,30.7,25.0,30.59,WSW,246,0.0,0.0,79,0.00,,,0.01,Wunderground v.1.15,2013-11-06 00:02:00,
2013-11-05 20:07:00,30.5,25.1,30.59,WSW,246,0.0,0.0,80,0.00,,,0.01,Wunderground v.1.15,2013-11-06 00:07:00,
2013-11-05 20:12:00,30.3,24.9,30.59,WSW,246,0.0,0.0,80,0.00,,,0.01,Wunderground v.1.15,2013-11-06 00:12:00,
2013-11-05 20:17:00,30.3,24.6,30.59,WSW,246,0.0,0.0,79,0.00,,,0.01,Wunderground v.1.15,2013-11-06 00:17:00,
2013-11-05 20:22:00,30.1,24.7,30.59,WSW,246,0.0,0.0,80,0.00,,,0.01,Wunderground v.1.15,2013-11-06 00:22:00,
2013-11-05 20:27:00,30.3,25.2,30.59,WSW,246,0.0,0.0,81,0.00,,,0.01,Wunderground v.1.15,2013-11-06 00:27:00,
2013-11-05 20:32:00,30.6,25.5,30.59,WSW,246,0.0,0.0,81,0.00,,,0.01,Wunderground v.1.15,2013-11-06 00:32:00,
2013-11-05 20:37:00,31.0,26.1,30.59,WSW,244,0.0,0.0,82,0.00,,,0.01,Wunderground v.1.15,2013-11-06 00:37:00,
2013-11-05 20:42:00,31.3,26.1,30.59,WSW,246,0.0,0.0,81,0.00,,,0.01,Wunderground v.1.15,2013-11-06 00:42:00,
2013-11-05 20:47:00,31.9,26.7,30.59,WSW,249,0.0,0.0,81,0.00,,,0.01,Wunderground v.1.15,2013-11-06 00:47:00,
2013-11-05 20:52:00,32.3,26.8,30.59,WSW,249,0.0,0.0,80,0.00,,,0.01,Wunderground v.1.15,2013-11-06 00:52:00,
2013-11-05 20:57:00,32.4,26.6,30.59,WSW,249,0.0,0.0,79,0.00,,,0.01,Wunderground v.1.15,2013-11-06 00:57:00,
2013-11-05 21:02:00,32.5,26.7,30.58,WSW,249,0.0,0.0,79,0.00,,,0.01,Wunderground v.1.15,2013-11-06 01:02:00,
2013-11-05 21:07:00,32.6,26.8,30.58,WSW,249,0.0,0.0,79,0.00,,,0.01,Wunderground v.1.15,2013-11-06 01:07:00,
2013-11-05 21:12:00,32.6,26.8,30.58,WSW,249,0.0,0.0,79,0.00,,,0.01,Wunderground v.1.15,2013-11-06 01:12:00,
2013-11-05 21:17:00,32.7,26.9,30.58,WSW,249,0.0,0.0,79,0.00,,,0.01,Wunderground v.1.15,2013-11-06 01:17:00,
2013-11-05 21:22:00,32.8,27.0,30.58,WSW,249,0.0,1.0,79,0.00,,,0.01,Wunderground v.1.15,2013-11-06 01:22:00,
2013-11-05 21:27:00,33.0,27.2,30.58,WSW,248,0.0,1.0,79,0.00,,,0.01,Wunderground v.1.15,2013-11-06 01:27:00,
2013-11-05 21:32:00,33.5,27.7,30.58,WSW,246,0.0,1.0,79,0.00,,,0.01,Wunderground v.1.15,2013-11-06 01:32:00,
2013-11-05 21:37:00,33.9,27.8,30.58,WSW,247,0.0,1.0,78,0.00,,,0.01,Wunderground v.1.15,2013-11-06 01:37:00,
2013-11-05 21:42:00,34.4,28.2,30.58,West,262,1.0,3.0,78,0.00,,,0.01,Wunderground v.1.15,2013-11-06 01:42:00,
2013-11-05 21:47:00,35.0,28.5,30.58,West,259,3.0,4.0,77,0.00,,,0.01,Wunderground v.1.15,2013-11-06 01:47:00,
2013-11-05 21:52:00,35.5,28.4,30.58,WSW,252,4.0,4.0,75,0.00,,,0.01,Wunderground v.1.15,2013-11-06 01:52:00,
2013-11-05 21:57:00,36.1,28.6,30.57,WSW,244,4.0,4.0,74,0.00,,,0.01,Wunderground v.1.15,2013-11-06 01:57:00,
2013-11-05 22:02:00,36.2,28.4,30.57,WSW,249,4.0,4.0,73,0.00,,,0.01,Wunderground v.1.15,2013-11-06 02:02:00,
2013-11-05 22:07:00,36.4,28.6,30.57,West,269,3.0,4.0,73,0.00,,,0.01,Wunderground v.1.15,2013-11-06 02:07:00,
2013-11-05 22:12:00,36.2,28.4,30.57,WSW,246,3.0,3.0,73,0.00,,,0.01,Wunderground v.1.15,2013-11-06 02:12:00,
2013-11-05 22:22:00,35.5,28.0,30.57,WSW,243,1.0,1.0,74,0.00,,,0.01,Wunderground v.1.15,2013-11-06 02:22:00,
2013-11-05 22:27:00,35.0,27.9,30.56,WSW,243,0.0,1.0,75,0.00,,,0.01,Wunderground v.1.15,2013-11-06 02:27:00,
2013-11-05 22:32:00,34.6,27.5,30.56,WSW,243,0.0,0.0,75,0.00,,,0.01,Wunderground v.1.15,2013-11-06 02:32:00,
2013-11-05 22:37:00,34.1,27.3,30.56,WSW,243,0.0,0.0,76,0.00,,,0.01,Wunderground v.1.15,2013-11-06 02:37:00,
2013-11-05 22:42:00,33.9,27.4,30.55,WSW,243,0.0,1.0,77,0.00,,,0.01,Wunderground v.1.15,2013-11-06 02:42:00,
2013-11-05 22:47:00,33.7,27.3,30.55,WSW,243,1.0,1.0,77,0.00,,,0.01,Wunderground v.1.15,2013-11-06 02:47:00,
2013-11-05 22:52:00,33.5,27.1,30.55,WSW,243,0.0,0.0,77,0.00,,,0.01,Wunderground v.1.15,2013-11-06 02:52:00,
2013-11-05 22:57:00,33.3,27.2,30.54,WSW,243,0.0,0.0,78,0.00,,,0.01,Wunderground v.1.15,2013-11-06 02:57:00,
2013-11-05 23:02:00,33.1,27.0,30.54,WSW,243,0.0,0.0,78,0.00,,,0.01,Wunderground v.1.15,2013-11-06 03:02:00,
2013-11-05 23:07:00,33.0,27.2,30.53,SW,215,0.0,1.0,79,0.00,,,0.01,Wunderground v.1.15,2013-11-06 03:07:00,
2013-11-05 23:12:00,33.0,27.2,30.54,SW,215,1.0,1.0,79,0.00,,,0.01,Wunderground v.1.15,2013-11-06 03:12:00,
2013-11-05 23:17:00,33.2,27.4,30.53,SW,216,1.0,1.0,79,0.00,,,0.01,Wunderground v.1.15,2013-11-06 03:17:00,
2013-11-05 23:27:00,33.5,27.4,30.54,SW,216,0.0,0.0,78,0.00,,,0.01,Wunderground v.1.15,2013-11-06 03:27:00,
2013-11-05 23:32:00,33.6,27.5,30.53,WSW,244,0.0,0.0,78,0.00,,,0.01,Wunderground v.1.15,2013-11-06 03:32:00,
2013-11-05 23:37:00,33.6,27.5,30.53,WSW,244,0.0,0.0,78,0.00,,,0.01,Wunderground v.1.15,2013-11-06 03:37:00,
2013-11-05 23:42:00,33.6,27.5,30.53,WSW,244,0.0,0.0,78,0.00,,,0.01,Wunderground v.1.15,2013-11-06 03:42:00,
2013-11-05 23:47:00,33.6,27.8,30.53,WSW,244,0.0,0.0,79,0.00,,,0.01,Wunderground v.1.15,2013-11-06 03:47:00,
2013-11-05 23:52:00,33.6,28.1,30.53,WSW,244,0.0,0.0,80,0.00,,,0.01,Wunderground v.1.15,2013-11-06 03:52:00,
2013-11-05 23:57:00,33.6,28.1,30.54,WSW,244,0.0,0.0,80,0.00,,,0.01,Wunderground v.1.15,2013-11-06 03:57:00,